sensor_id;sensor_type;location;lat;lon;timestamp;P1;durP1;ratioP1;P2;durP2;ratioP2
53040;SDS011;39326;42.650;23.248;2022-11-15T00:01:34;22.47;;;18.57;;
53040;SDS011;39326;42.650;23.248;2022-11-15T00:04:08;23.40;;;17.40;;
53040;SDS011;39326;42.650;23.248;2022-11-15T00:06:41;24.37;;;19.77;;
53040;SDS011;39326;42.650;23.248;2022-11-15T00:09:12;20.50;;;18.33;;
53040;SDS011;39326;42.650;23.248;2022-11-15T00:11:46;21.17;;;17.97;;
53040;SDS011;39326;42.650;23.248;2022-11-15T00:14:19;22.37;;;19.17;;
53040;SDS011;39326;42.650;23.248;2022-11-15T00:16:53;22.97;;;19.80;;
53040;SDS011;39326;42.650;23.248;2022-11-15T00:19:26;27.43;;;21.00;;
53040;SDS011;39326;42.650;23.248;2022-11-15T00:21:59;28.27;;;18.83;;
53040;SDS011;39326;42.650;23.248;2022-11-15T00:24:30;22.30;;;17.13;;
53040;SDS011;39326;42.650;23.248;2022-11-15T00:27:03;17.83;;;16.03;;
53040;SDS011;39326;42.650;23.248;2022-11-15T00:29:36;15.67;;;13.97;;
53040;SDS011;39326;42.650;23.248;2022-11-15T00:32:05;15.37;;;13.07;;
53040;SDS011;39326;42.650;23.248;2022-11-15T00:34:42;16.90;;;14.27;;
53040;SDS011;39326;42.650;23.248;2022-11-15T00:37:16;23.07;;;17.57;;
53040;SDS011;39326;42.650;23.248;2022-11-15T00:39:48;20.03;;;17.90;;
53040;SDS011;39326;42.650;23.248;2022-11-15T00:42:20;24.13;;;19.90;;
53040;SDS011;39326;42.650;23.248;2022-11-15T00:44:53;22.17;;;19.00;;
53040;SDS011;39326;42.650;23.248;2022-11-15T00:47:23;25.23;;;21.47;;
53040;SDS011;39326;42.650;23.248;2022-11-15T00:49:56;30.17;;;25.13;;
53040;SDS011;39326;42.650;23.248;2022-11-15T00:52:22;30.00;;;25.37;;
53040;SDS011;39326;42.650;23.248;2022-11-15T00:54:50;33.73;;;25.83;;
53040;SDS011;39326;42.650;23.248;2022-11-15T00:57:16;35.17;;;29.07;;
53040;SDS011;39326;42.650;23.248;2022-11-15T00:59:43;38.83;;;28.57;;
53040;SDS011;39326;42.650;23.248;2022-11-15T01:02:11;30.73;;;25.97;;
53040;SDS011;39326;42.650;23.248;2022-11-15T01:04:41;22.97;;;19.80;;
53040;SDS011;39326;42.650;23.248;2022-11-15T01:07:11;21.73;;;18.40;;
53040;SDS011;39326;42.650;23.248;2022-11-15T01:09:40;20.50;;;17.47;;
53040;SDS011;39326;42.650;23.248;2022-11-15T01:12:13;24.80;;;20.27;;
53040;SDS011;39326;42.650;23.248;2022-11-15T01:14:43;26.23;;;21.70;;
53040;SDS011;39326;42.650;23.248;2022-11-15T01:17:12;30.70;;;23.93;;
53040;SDS011;39326;42.650;23.248;2022-11-15T01:19:43;35.63;;;26.70;;
53040;SDS011;39326;42.650;23.248;2022-11-15T01:22:13;29.40;;;22.97;;
53040;SDS011;39326;42.650;23.248;2022-11-15T01:24:46;25.20;;;21.13;;
53040;SDS011;39326;42.650;23.248;2022-11-15T01:27:19;25.07;;;20.77;;
53040;SDS011;39326;42.650;23.248;2022-11-15T01:29:51;27.37;;;21.53;;
53040;SDS011;39326;42.650;23.248;2022-11-15T01:32:23;29.50;;;23.33;;
53040;SDS011;39326;42.650;23.248;2022-11-15T01:34:56;32.77;;;25.30;;
53040;SDS011;39326;42.650;23.248;2022-11-15T01:37:29;33.90;;;26.13;;
53040;SDS011;39326;42.650;23.248;2022-11-15T01:40:02;26.70;;;21.57;;
53040;SDS011;39326;42.650;23.248;2022-11-15T01:42:35;20.47;;;16.13;;
53040;SDS011;39326;42.650;23.248;2022-11-15T01:45:14;23.10;;;20.27;;
53040;SDS011;39326;42.650;23.248;2022-11-15T01:47:46;22.83;;;18.23;;
53040;SDS011;39326;42.650;23.248;2022-11-15T01:50:26;21.23;;;17.20;;
53040;SDS011;39326;42.650;23.248;2022-11-15T01:53:01;21.23;;;17.67;;
53040;SDS011;39326;42.650;23.248;2022-11-15T01:55:34;17.23;;;15.03;;
53040;SDS011;39326;42.650;23.248;2022-11-15T01:58:08;16.77;;;13.87;;
53040;SDS011;39326;42.650;23.248;2022-11-15T02:00:42;13.30;;;11.07;;
53040;SDS011;39326;42.650;23.248;2022-11-15T02:03:15;9.30;;;8.40;;
53040;SDS011;39326;42.650;23.248;2022-11-15T02:05:50;10.93;;;8.27;;
53040;SDS011;39326;42.650;23.248;2022-11-15T02:08:21;7.60;;;6.90;;
53040;SDS011;39326;42.650;23.248;2022-11-15T02:10:56;9.40;;;8.37;;
53040;SDS011;39326;42.650;23.248;2022-11-15T02:13:28;8.93;;;7.90;;
53040;SDS011;39326;42.650;23.248;2022-11-15T02:18:59;10.67;;;9.17;;
53040;SDS011;39326;42.650;23.248;2022-11-15T02:24:25;10.57;;;9.47;;
53040;SDS011;39326;42.650;23.248;2022-11-15T02:27:21;12.93;;;11.30;;
53040;SDS011;39326;42.650;23.248;2022-11-15T02:36:02;15.37;;;12.70;;
53040;SDS011;39326;42.650;23.248;2022-11-15T02:38:57;22.93;;;17.53;;
53040;SDS011;39326;42.650;23.248;2022-11-15T02:41:55;17.93;;;14.40;;
53040;SDS011;39326;42.650;23.248;2022-11-15T02:44:50;19.60;;;16.93;;
53040;SDS011;39326;42.650;23.248;2022-11-15T02:47:24;20.87;;;16.20;;
53040;SDS011;39326;42.650;23.248;2022-11-15T02:50:00;25.60;;;18.90;;
53040;SDS011;39326;42.650;23.248;2022-11-15T02:52:37;19.33;;;16.40;;
53040;SDS011;39326;42.650;23.248;2022-11-15T02:55:32;23.13;;;17.33;;
53040;SDS011;39326;42.650;23.248;2022-11-15T03:00:50;16.40;;;14.27;;
53040;SDS011;39326;42.650;23.248;2022-11-15T03:03:41;16.07;;;13.63;;
53040;SDS011;39326;42.650;23.248;2022-11-15T03:06:38;17.43;;;13.93;;
53040;SDS011;39326;42.650;23.248;2022-11-15T03:09:21;16.97;;;12.87;;
53040;SDS011;39326;42.650;23.248;2022-11-15T03:12:13;17.37;;;13.77;;
53040;SDS011;39326;42.650;23.248;2022-11-15T03:14:54;15.67;;;13.40;;
53040;SDS011;39326;42.650;23.248;2022-11-15T03:17:30;19.17;;;14.67;;
53040;SDS011;39326;42.650;23.248;2022-11-15T03:20:08;20.40;;;15.67;;
53040;SDS011;39326;42.650;23.248;2022-11-15T03:22:44;19.47;;;16.07;;
53040;SDS011;39326;42.650;23.248;2022-11-15T03:25:19;19.40;;;15.73;;
53040;SDS011;39326;42.650;23.248;2022-11-15T03:27:53;17.73;;;14.70;;
53040;SDS011;39326;42.650;23.248;2022-11-15T03:30:32;19.43;;;15.90;;
53040;SDS011;39326;42.650;23.248;2022-11-15T03:33:08;17.10;;;15.27;;
53040;SDS011;39326;42.650;23.248;2022-11-15T03:35:40;19.93;;;17.07;;
53040;SDS011;39326;42.650;23.248;2022-11-15T03:38:22;20.13;;;17.57;;
53040;SDS011;39326;42.650;23.248;2022-11-15T03:41:04;23.50;;;18.47;;
53040;SDS011;39326;42.650;23.248;2022-11-15T03:44:00;20.17;;;17.70;;
53040;SDS011;39326;42.650;23.248;2022-11-15T03:47:07;26.80;;;22.60;;
53040;SDS011;39326;42.650;23.248;2022-11-15T03:49:44;27.60;;;22.77;;
53040;SDS011;39326;42.650;23.248;2022-11-15T03:52:30;33.00;;;27.87;;
53040;SDS011;39326;42.650;23.248;2022-11-15T03:55:04;33.77;;;30.27;;
53040;SDS011;39326;42.650;23.248;2022-11-15T03:57:38;30.63;;;26.67;;
53040;SDS011;39326;42.650;23.248;2022-11-15T04:00:10;29.57;;;23.70;;
53040;SDS011;39326;42.650;23.248;2022-11-15T04:02:43;34.07;;;25.50;;
53040;SDS011;39326;42.650;23.248;2022-11-15T04:05:16;36.10;;;30.00;;
53040;SDS011;39326;42.650;23.248;2022-11-15T04:07:49;43.63;;;35.20;;
53040;SDS011;39326;42.650;23.248;2022-11-15T04:10:22;46.83;;;38.83;;
53040;SDS011;39326;42.650;23.248;2022-11-15T04:12:55;36.97;;;32.90;;
53040;SDS011;39326;42.650;23.248;2022-11-15T04:15:29;31.67;;;28.17;;
53040;SDS011;39326;42.650;23.248;2022-11-15T04:18:00;28.80;;;23.93;;
53040;SDS011;39326;42.650;23.248;2022-11-15T04:20:34;32.40;;;25.90;;
53040;SDS011;39326;42.650;23.248;2022-11-15T04:23:23;62.63;;;45.17;;
53040;SDS011;39326;42.650;23.248;2022-11-15T04:26:18;32.00;;;24.63;;
53040;SDS011;39326;42.650;23.248;2022-11-15T04:28:48;27.87;;;21.57;;
53040;SDS011;39326;42.650;23.248;2022-11-15T04:31:36;29.60;;;23.03;;
53040;SDS011;39326;42.650;23.248;2022-11-15T04:34:08;27.77;;;21.30;;
53040;SDS011;39326;42.650;23.248;2022-11-15T04:36:41;28.53;;;24.20;;
53040;SDS011;39326;42.650;23.248;2022-11-15T04:39:32;32.07;;;25.00;;
53040;SDS011;39326;42.650;23.248;2022-11-15T04:42:04;27.60;;;24.60;;
53040;SDS011;39326;42.650;23.248;2022-11-15T04:44:36;27.53;;;21.93;;
53040;SDS011;39326;42.650;23.248;2022-11-15T04:47:07;25.67;;;20.63;;
53040;SDS011;39326;42.650;23.248;2022-11-15T04:49:35;32.63;;;25.33;;
53040;SDS011;39326;42.650;23.248;2022-11-15T04:52:08;23.40;;;19.90;;
53040;SDS011;39326;42.650;23.248;2022-11-15T04:54:41;26.20;;;20.57;;
53040;SDS011;39326;42.650;23.248;2022-11-15T04:57:13;27.03;;;20.97;;
53040;SDS011;39326;42.650;23.248;2022-11-15T04:59:42;26.43;;;21.90;;
53040;SDS011;39326;42.650;23.248;2022-11-15T05:02:11;32.30;;;24.67;;
53040;SDS011;39326;42.650;23.248;2022-11-15T05:04:45;26.70;;;20.60;;
53040;SDS011;39326;42.650;23.248;2022-11-15T05:07:17;38.67;;;23.53;;
53040;SDS011;39326;42.650;23.248;2022-11-15T05:09:49;323.73;;;35.07;;
53040;SDS011;39326;42.650;23.248;2022-11-15T05:12:23;423.33;;;39.47;;
53040;SDS011;39326;42.650;23.248;2022-11-15T05:14:56;109.27;;;25.47;;
53040;SDS011;39326;42.650;23.248;2022-11-15T05:17:28;269.27;;;32.77;;
53040;SDS011;39326;42.650;23.248;2022-11-15T05:19:59;464.23;;;40.37;;
53040;SDS011;39326;42.650;23.248;2022-11-15T05:22:33;345.13;;;37.47;;
53040;SDS011;39326;42.650;23.248;2022-11-15T05:25:05;271.03;;;33.47;;
53040;SDS011;39326;42.650;23.248;2022-11-15T05:27:38;184.90;;;31.10;;
53040;SDS011;39326;42.650;23.248;2022-11-15T05:30:11;193.40;;;31.17;;
53040;SDS011;39326;42.650;23.248;2022-11-15T05:32:43;354.90;;;36.10;;
53040;SDS011;39326;42.650;23.248;2022-11-15T05:35:18;456.67;;;40.97;;
53040;SDS011;39326;42.650;23.248;2022-11-15T05:38:04;237.23;;;32.43;;
53040;SDS011;39326;42.650;23.248;2022-11-15T05:40:38;222.40;;;30.17;;
53040;SDS011;39326;42.650;23.248;2022-11-15T05:43:10;121.87;;;25.07;;
53040;SDS011;39326;42.650;23.248;2022-11-15T05:45:41;264.43;;;29.33;;
53040;SDS011;39326;42.650;23.248;2022-11-15T05:48:09;324.50;;;34.67;;
53040;SDS011;39326;42.650;23.248;2022-11-15T05:50:36;75.50;;;22.37;;
53040;SDS011;39326;42.650;23.248;2022-11-15T05:53:06;130.00;;;23.73;;
53040;SDS011;39326;42.650;23.248;2022-11-15T05:55:36;114.07;;;24.13;;
53040;SDS011;39326;42.650;23.248;2022-11-15T05:58:06;171.53;;;27.13;;
53040;SDS011;39326;42.650;23.248;2022-11-15T06:00:36;83.70;;;23.47;;
53040;SDS011;39326;42.650;23.248;2022-11-15T06:03:07;71.70;;;22.87;;
53040;SDS011;39326;42.650;23.248;2022-11-15T06:05:35;51.70;;;21.50;;
53040;SDS011;39326;42.650;23.248;2022-11-15T06:08:04;123.23;;;26.37;;
53040;SDS011;39326;42.650;23.248;2022-11-15T06:10:33;87.33;;;24.70;;
53040;SDS011;39326;42.650;23.248;2022-11-15T06:13:04;102.50;;;24.77;;
53040;SDS011;39326;42.650;23.248;2022-11-15T06:15:35;232.90;;;31.70;;
53040;SDS011;39326;42.650;23.248;2022-11-15T06:18:03;55.27;;;21.73;;
53040;SDS011;39326;42.650;23.248;2022-11-15T06:20:32;212.93;;;28.80;;
53040;SDS011;39326;42.650;23.248;2022-11-15T06:23:02;50.73;;;21.87;;
53040;SDS011;39326;42.650;23.248;2022-11-15T06:25:30;44.57;;;21.13;;
53040;SDS011;39326;42.650;23.248;2022-11-15T06:27:58;39.13;;;21.97;;
53040;SDS011;39326;42.650;23.248;2022-11-15T06:30:25;116.50;;;22.33;;
53040;SDS011;39326;42.650;23.248;2022-11-15T06:33:03;56.73;;;20.73;;
53040;SDS011;39326;42.650;23.248;2022-11-15T06:35:33;133.13;;;22.70;;
53040;SDS011;39326;42.650;23.248;2022-11-15T06:38:06;103.67;;;23.77;;
53040;SDS011;39326;42.650;23.248;2022-11-15T06:40:38;62.77;;;21.97;;
53040;SDS011;39326;42.650;23.248;2022-11-15T06:43:09;82.63;;;25.97;;
53040;SDS011;39326;42.650;23.248;2022-11-15T06:45:43;44.17;;;23.60;;
53040;SDS011;39326;42.650;23.248;2022-11-15T06:48:14;284.10;;;34.73;;
53040;SDS011;39326;42.650;23.248;2022-11-15T06:50:42;59.83;;;23.87;;
53040;SDS011;39326;42.650;23.248;2022-11-15T06:53:17;63.57;;;22.77;;
53040;SDS011;39326;42.650;23.248;2022-11-15T06:55:47;28.50;;;20.57;;
53040;SDS011;39326;42.650;23.248;2022-11-15T06:58:17;47.63;;;22.07;;
53040;SDS011;39326;42.650;23.248;2022-11-15T07:00:50;46.57;;;20.73;;
53040;SDS011;39326;42.650;23.248;2022-11-15T07:03:22;79.80;;;23.67;;
53040;SDS011;39326;42.650;23.248;2022-11-15T07:05:56;37.47;;;22.73;;
53040;SDS011;39326;42.650;23.248;2022-11-15T07:08:28;49.33;;;23.47;;
53040;SDS011;39326;42.650;23.248;2022-11-15T07:11:01;75.73;;;25.07;;
53040;SDS011;39326;42.650;23.248;2022-11-15T07:13:31;84.63;;;26.87;;
53040;SDS011;39326;42.650;23.248;2022-11-15T07:16:04;56.47;;;27.23;;
53040;SDS011;39326;42.650;23.248;2022-11-15T07:18:37;121.80;;;31.37;;
53040;SDS011;39326;42.650;23.248;2022-11-15T07:21:10;99.93;;;30.37;;
53040;SDS011;39326;42.650;23.248;2022-11-15T07:23:43;76.47;;;29.70;;
53040;SDS011;39326;42.650;23.248;2022-11-15T07:26:15;61.60;;;29.97;;
53040;SDS011;39326;42.650;23.248;2022-11-15T07:28:48;107.03;;;32.73;;
53040;SDS011;39326;42.650;23.248;2022-11-15T07:31:21;282.37;;;38.73;;
53040;SDS011;39326;42.650;23.248;2022-11-15T07:33:55;236.93;;;36.60;;
53040;SDS011;39326;42.650;23.248;2022-11-15T07:36:28;185.20;;;34.47;;
53040;SDS011;39326;42.650;23.248;2022-11-15T07:39:00;55.03;;;33.43;;
53040;SDS011;39326;42.650;23.248;2022-11-15T07:41:32;74.23;;;31.43;;
53040;SDS011;39326;42.650;23.248;2022-11-15T07:44:04;45.83;;;30.57;;
53040;SDS011;39326;42.650;23.248;2022-11-15T07:46:34;130.93;;;35.43;;
53040;SDS011;39326;42.650;23.248;2022-11-15T07:49:07;54.03;;;32.03;;
53040;SDS011;39326;42.650;23.248;2022-11-15T07:51:37;92.97;;;33.67;;
53040;SDS011;39326;42.650;23.248;2022-11-15T07:54:07;151.67;;;35.00;;
53040;SDS011;39326;42.650;23.248;2022-11-15T07:56:39;88.53;;;32.97;;
53040;SDS011;39326;42.650;23.248;2022-11-15T07:59:13;44.63;;;32.03;;
53040;SDS011;39326;42.650;23.248;2022-11-15T08:01:46;80.03;;;33.30;;
53040;SDS011;39326;42.650;23.248;2022-11-15T08:04:19;49.00;;;31.17;;
53040;SDS011;39326;42.650;23.248;2022-11-15T08:06:52;49.07;;;32.23;;
53040;SDS011;39326;42.650;23.248;2022-11-15T08:09:26;50.53;;;32.90;;
53040;SDS011;39326;42.650;23.248;2022-11-15T08:11:59;98.27;;;34.23;;
53040;SDS011;39326;42.650;23.248;2022-11-15T08:14:32;114.70;;;37.63;;
53040;SDS011;39326;42.650;23.248;2022-11-15T08:17:06;92.67;;;34.33;;
53040;SDS011;39326;42.650;23.248;2022-11-15T08:19:39;51.20;;;33.50;;
53040;SDS011;39326;42.650;23.248;2022-11-15T08:22:11;60.23;;;35.27;;
53040;SDS011;39326;42.650;23.248;2022-11-15T08:24:44;111.47;;;35.43;;
53040;SDS011;39326;42.650;23.248;2022-11-15T08:27:16;74.57;;;33.50;;
53040;SDS011;39326;42.650;23.248;2022-11-15T08:29:49;63.60;;;35.03;;
53040;SDS011;39326;42.650;23.248;2022-11-15T08:32:23;104.53;;;36.87;;
53040;SDS011;39326;42.650;23.248;2022-11-15T08:34:56;89.67;;;36.60;;
53040;SDS011;39326;42.650;23.248;2022-11-15T08:37:29;76.23;;;36.63;;
53040;SDS011;39326;42.650;23.248;2022-11-15T08:40:01;65.97;;;38.03;;
53040;SDS011;39326;42.650;23.248;2022-11-15T08:42:33;151.80;;;40.60;;
53040;SDS011;39326;42.650;23.248;2022-11-15T08:45:06;74.40;;;39.87;;
53040;SDS011;39326;42.650;23.248;2022-11-15T08:47:38;53.43;;;39.90;;
53040;SDS011;39326;42.650;23.248;2022-11-15T08:50:11;76.17;;;41.63;;
53040;SDS011;39326;42.650;23.248;2022-11-15T08:52:43;95.87;;;46.07;;
53040;SDS011;39326;42.650;23.248;2022-11-15T08:55:19;60.90;;;45.17;;
53040;SDS011;39326;42.650;23.248;2022-11-15T08:57:52;64.80;;;46.30;;
53040;SDS011;39326;42.650;23.248;2022-11-15T09:00:27;70.67;;;47.83;;
53040;SDS011;39326;42.650;23.248;2022-11-15T09:02:59;63.03;;;45.40;;
53040;SDS011;39326;42.650;23.248;2022-11-15T09:05:36;73.43;;;47.50;;
53040;SDS011;39326;42.650;23.248;2022-11-15T09:08:08;82.90;;;49.03;;
53040;SDS011;39326;42.650;23.248;2022-11-15T09:10:41;70.90;;;47.33;;
53040;SDS011;39326;42.650;23.248;2022-11-15T09:13:15;64.90;;;46.73;;
53040;SDS011;39326;42.650;23.248;2022-11-15T09:15:48;67.17;;;48.73;;
53040;SDS011;39326;42.650;23.248;2022-11-15T09:18:22;72.80;;;49.83;;
53040;SDS011;39326;42.650;23.248;2022-11-15T09:20:59;72.30;;;49.57;;
53040;SDS011;39326;42.650;23.248;2022-11-15T09:23:32;69.07;;;49.07;;
53040;SDS011;39326;42.650;23.248;2022-11-15T09:26:04;97.53;;;52.73;;
53040;SDS011;39326;42.650;23.248;2022-11-15T09:28:38;76.07;;;53.87;;
53040;SDS011;39326;42.650;23.248;2022-11-15T09:31:10;81.43;;;55.23;;
53040;SDS011;39326;42.650;23.248;2022-11-15T09:33:47;76.10;;;54.90;;
53040;SDS011;39326;42.650;23.248;2022-11-15T09:36:21;84.70;;;57.00;;
53040;SDS011;39326;42.650;23.248;2022-11-15T09:38:54;86.27;;;59.07;;
53040;SDS011;39326;42.650;23.248;2022-11-15T09:41:30;94.73;;;61.83;;
53040;SDS011;39326;42.650;23.248;2022-11-15T09:47:05;101.73;;;66.13;;
53040;SDS011;39326;42.650;23.248;2022-11-15T09:49:58;114.40;;;70.53;;
53040;SDS011;39326;42.650;23.248;2022-11-15T09:52:39;108.07;;;67.97;;
53040;SDS011;39326;42.650;23.248;2022-11-15T09:55:13;115.33;;;73.83;;
53040;SDS011;39326;42.650;23.248;2022-11-15T09:57:57;115.97;;;72.10;;
53040;SDS011;39326;42.650;23.248;2022-11-15T10:00:51;111.30;;;70.10;;
53040;SDS011;39326;42.650;23.248;2022-11-15T10:03:30;112.03;;;71.47;;
53040;SDS011;39326;42.650;23.248;2022-11-15T10:06:10;113.00;;;73.07;;
53040;SDS011;39326;42.650;23.248;2022-11-15T10:09:04;107.90;;;70.27;;
53040;SDS011;39326;42.650;23.248;2022-11-15T10:11:42;109.07;;;69.90;;
53040;SDS011;39326;42.650;23.248;2022-11-15T10:14:20;112.60;;;71.83;;
53040;SDS011;39326;42.650;23.248;2022-11-15T10:20:02;100.80;;;69.20;;
53040;SDS011;39326;42.650;23.248;2022-11-15T10:22:55;96.37;;;67.33;;
53040;SDS011;39326;42.650;23.248;2022-11-15T10:25:34;100.07;;;71.03;;
53040;SDS011;39326;42.650;23.248;2022-11-15T10:31:10;107.17;;;72.83;;
53040;SDS011;39326;42.650;23.248;2022-11-15T10:33:59;101.87;;;72.07;;
53040;SDS011;39326;42.650;23.248;2022-11-15T10:36:54;101.23;;;75.73;;
53040;SDS011;39326;42.650;23.248;2022-11-15T10:39:28;93.53;;;73.13;;
53040;SDS011;39326;42.650;23.248;2022-11-15T10:42:25;88.97;;;71.13;;
53040;SDS011;39326;42.650;23.248;2022-11-15T10:44:59;94.67;;;73.47;;
53040;SDS011;39326;42.650;23.248;2022-11-15T10:47:32;92.40;;;71.60;;
53040;SDS011;39326;42.650;23.248;2022-11-15T10:52:55;97.27;;;74.23;;
53040;SDS011;39326;42.650;23.248;2022-11-15T10:55:31;97.13;;;74.90;;
53040;SDS011;39326;42.650;23.248;2022-11-15T10:58:05;89.93;;;72.37;;
53040;SDS011;39326;42.650;23.248;2022-11-15T11:00:52;93.57;;;73.50;;
53040;SDS011;39326;42.650;23.248;2022-11-15T11:03:35;89.07;;;71.33;;
53040;SDS011;39326;42.650;23.248;2022-11-15T11:06:10;90.77;;;74.13;;
53040;SDS011;39326;42.650;23.248;2022-11-15T11:08:59;91.77;;;74.73;;
53040;SDS011;39326;42.650;23.248;2022-11-15T11:11:46;92.73;;;74.37;;
53040;SDS011;39326;42.650;23.248;2022-11-15T11:19:56;92.23;;;74.20;;
53040;SDS011;39326;42.650;23.248;2022-11-15T11:34:04;100.63;;;80.13;;
53040;SDS011;39326;42.650;23.248;2022-11-15T11:37:09;99.37;;;76.90;;
53040;SDS011;39326;42.650;23.248;2022-11-15T11:45:36;94.23;;;74.83;;
53040;SDS011;39326;42.650;23.248;2022-11-15T11:51:27;97.10;;;75.27;;
53040;SDS011;39326;42.650;23.248;2022-11-15T11:54:22;96.13;;;73.53;;
53040;SDS011;39326;42.650;23.248;2022-11-15T11:57:03;93.87;;;74.87;;
53040;SDS011;39326;42.650;23.248;2022-11-15T11:59:58;98.93;;;75.77;;
53040;SDS011;39326;42.650;23.248;2022-11-15T12:02:43;89.93;;;72.07;;
53040;SDS011;39326;42.650;23.248;2022-11-15T12:05:34;92.07;;;71.47;;
53040;SDS011;39326;42.650;23.248;2022-11-15T12:11:16;88.70;;;67.00;;
53040;SDS011;39326;42.650;23.248;2022-11-15T12:13:50;82.10;;;67.37;;
53040;SDS011;39326;42.650;23.248;2022-11-15T12:16:31;83.47;;;62.47;;
53040;SDS011;39326;42.650;23.248;2022-11-15T12:19:12;88.07;;;69.83;;
53040;SDS011;39326;42.650;23.248;2022-11-15T12:21:50;81.57;;;66.37;;
53040;SDS011;39326;42.650;23.248;2022-11-15T12:24:36;82.60;;;65.20;;
53040;SDS011;39326;42.650;23.248;2022-11-15T12:27:31;82.77;;;66.60;;
53040;SDS011;39326;42.650;23.248;2022-11-15T12:30:11;75.53;;;63.07;;
53040;SDS011;39326;42.650;23.248;2022-11-15T12:33:00;78.93;;;62.50;;
53040;SDS011;39326;42.650;23.248;2022-11-15T12:35:39;72.10;;;59.30;;
53040;SDS011;39326;42.650;23.248;2022-11-15T12:38:14;77.30;;;61.33;;
53040;SDS011;39326;42.650;23.248;2022-11-15T12:41:29;75.97;;;63.43;;
53040;SDS011;39326;42.650;23.248;2022-11-15T12:47:22;78.40;;;63.30;;
53040;SDS011;39326;42.650;23.248;2022-11-15T12:49:56;78.00;;;65.93;;
53040;SDS011;39326;42.650;23.248;2022-11-15T12:52:29;69.50;;;61.78;;
53040;SDS011;39326;42.650;23.248;2022-11-15T12:55:08;71.70;;;62.53;;
53040;SDS011;39326;42.650;23.248;2022-11-15T12:58:19;70.53;;;62.33;;
53040;SDS011;39326;42.650;23.248;2022-11-15T13:01:14;75.60;;;65.63;;
53040;SDS011;39326;42.650;23.248;2022-11-15T13:04:21;75.27;;;67.07;;
53040;SDS011;39326;42.650;23.248;2022-11-15T13:12:57;76.83;;;68.43;;
53040;SDS011;39326;42.650;23.248;2022-11-15T13:21:28;76.97;;;66.60;;
53040;SDS011;39326;42.650;23.248;2022-11-15T13:24:13;78.70;;;70.20;;
53040;SDS011;39326;42.650;23.248;2022-11-15T13:26:47;85.83;;;72.70;;
53040;SDS011;39326;42.650;23.248;2022-11-15T13:29:20;82.50;;;71.03;;
53040;SDS011;39326;42.650;23.248;2022-11-15T13:31:53;74.73;;;66.37;;
53040;SDS011;39326;42.650;23.248;2022-11-15T13:34:34;78.10;;;67.63;;
53040;SDS011;39326;42.650;23.248;2022-11-15T13:37:11;79.73;;;65.67;;
53040;SDS011;39326;42.650;23.248;2022-11-15T13:48:47;80.30;;;66.60;;
53040;SDS011;39326;42.650;23.248;2022-11-15T13:51:38;78.17;;;63.87;;
53040;SDS011;39326;42.650;23.248;2022-11-15T13:54:23;74.93;;;62.60;;
53040;SDS011;39326;42.650;23.248;2022-11-15T14:03:12;77.33;;;64.50;;
53040;SDS011;39326;42.650;23.248;2022-11-15T14:06:09;80.70;;;63.47;;
53040;SDS011;39326;42.650;23.248;2022-11-15T14:11:50;76.17;;;63.90;;
53040;SDS011;39326;42.650;23.248;2022-11-15T14:14:26;79.77;;;62.63;;
53040;SDS011;39326;42.650;23.248;2022-11-15T14:16:59;73.67;;;60.30;;
53040;SDS011;39326;42.650;23.248;2022-11-15T14:19:33;68.40;;;53.27;;
53040;SDS011;39326;42.650;23.248;2022-11-15T14:28:31;58.77;;;50.23;;
53040;SDS011;39326;42.650;23.248;2022-11-15T14:30:57;61.80;;;50.93;;
53040;SDS011;39326;42.650;23.248;2022-11-15T14:33:36;70.13;;;53.37;;
53040;SDS011;39326;42.650;23.248;2022-11-15T14:36:19;64.13;;;51.93;;
53040;SDS011;39326;42.650;23.248;2022-11-15T14:38:51;68.20;;;54.30;;
53040;SDS011;39326;42.650;23.248;2022-11-15T14:41:25;71.07;;;56.57;;
53040;SDS011;39326;42.650;23.248;2022-11-15T14:43:59;74.87;;;62.17;;
53040;SDS011;39326;42.650;23.248;2022-11-15T14:46:31;68.20;;;55.83;;
53040;SDS011;39326;42.650;23.248;2022-11-15T14:49:01;72.33;;;56.33;;
53040;SDS011;39326;42.650;23.248;2022-11-15T14:51:35;69.23;;;57.73;;
53040;SDS011;39326;42.650;23.248;2022-11-15T14:54:10;65.97;;;53.93;;
53040;SDS011;39326;42.650;23.248;2022-11-15T14:56:43;72.67;;;57.03;;
53040;SDS011;39326;42.650;23.248;2022-11-15T14:59:15;65.00;;;53.33;;
53040;SDS011;39326;42.650;23.248;2022-11-15T15:01:43;65.30;;;54.03;;
53040;SDS011;39326;42.650;23.248;2022-11-15T15:04:14;68.73;;;54.50;;
53040;SDS011;39326;42.650;23.248;2022-11-15T15:06:44;70.47;;;56.10;;
53040;SDS011;39326;42.650;23.248;2022-11-15T15:09:16;126.03;;;111.17;;
53040;SDS011;39326;42.650;23.248;2022-11-15T15:11:50;87.30;;;75.87;;
53040;SDS011;39326;42.650;23.248;2022-11-15T15:14:22;76.60;;;63.43;;
53040;SDS011;39326;42.650;23.248;2022-11-15T15:16:53;68.33;;;51.23;;
53040;SDS011;39326;42.650;23.248;2022-11-15T15:19:28;40.00;;;35.53;;
53040;SDS011;39326;42.650;23.248;2022-11-15T15:21:59;29.07;;;23.93;;
53040;SDS011;39326;42.650;23.248;2022-11-15T15:24:32;24.13;;;19.10;;
53040;SDS011;39326;42.650;23.248;2022-11-15T15:27:04;21.17;;;16.97;;
53040;SDS011;39326;42.650;23.248;2022-11-15T15:29:35;18.50;;;15.77;;
53040;SDS011;39326;42.650;23.248;2022-11-15T15:32:07;15.97;;;14.33;;
53040;SDS011;39326;42.650;23.248;2022-11-15T15:34:41;18.80;;;14.93;;
53040;SDS011;39326;42.650;23.248;2022-11-15T15:37:19;17.97;;;15.47;;
53040;SDS011;39326;42.650;23.248;2022-11-15T15:39:55;18.97;;;15.90;;
53040;SDS011;39326;42.650;23.248;2022-11-15T15:42:28;17.97;;;16.00;;
53040;SDS011;39326;42.650;23.248;2022-11-15T15:44:59;17.93;;;15.93;;
53040;SDS011;39326;42.650;23.248;2022-11-15T15:47:30;18.67;;;16.27;;
53040;SDS011;39326;42.650;23.248;2022-11-15T15:50:03;20.67;;;17.53;;
53040;SDS011;39326;42.650;23.248;2022-11-15T15:52:46;21.63;;;17.07;;
53040;SDS011;39326;42.650;23.248;2022-11-15T15:55:18;18.73;;;16.63;;
53040;SDS011;39326;42.650;23.248;2022-11-15T15:57:49;29.70;;;26.80;;
53040;SDS011;39326;42.650;23.248;2022-11-15T16:00:17;18.63;;;15.97;;
53040;SDS011;39326;42.650;23.248;2022-11-15T16:02:48;20.87;;;17.47;;
53040;SDS011;39326;42.650;23.248;2022-11-15T16:05:21;21.60;;;18.27;;
53040;SDS011;39326;42.650;23.248;2022-11-15T16:07:53;20.40;;;18.23;;
53040;SDS011;39326;42.650;23.248;2022-11-15T16:12:57;19.97;;;17.60;;
53040;SDS011;39326;42.650;23.248;2022-11-15T16:15:27;18.10;;;16.20;;
53040;SDS011;39326;42.650;23.248;2022-11-15T16:17:58;21.37;;;17.70;;
53040;SDS011;39326;42.650;23.248;2022-11-15T16:20:36;21.00;;;17.70;;
53040;SDS011;39326;42.650;23.248;2022-11-15T16:23:12;18.50;;;16.30;;
53040;SDS011;39326;42.650;23.248;2022-11-15T16:25:52;19.57;;;15.40;;
53040;SDS011;39326;42.650;23.248;2022-11-15T16:28:27;16.13;;;14.43;;
53040;SDS011;39326;42.650;23.248;2022-11-15T16:31:03;14.77;;;13.27;;
53040;SDS011;39326;42.650;23.248;2022-11-15T16:33:38;18.20;;;16.33;;